createdAt,value
2017-12-01T00:00:19.306Z,20.85
2017-12-01T00:02:46.982Z,23.42
2017-12-01T00:05:14.615Z,25.37
2017-12-01T00:07:42.279Z,23.15
2017-12-01T00:10:14.284Z,25.92
2017-12-01T00:12:41.807Z,28.15
2017-12-01T00:15:09.563Z,27.17
2017-12-01T00:17:37.090Z,25.55
2017-12-01T00:20:04.647Z,23.95
2017-12-01T00:22:32.989Z,22.23
2017-12-01T00:25:03.938Z,20.67
2017-12-01T00:27:31.458Z,22.65
2017-12-01T00:29:59.222Z,25.27
2017-12-01T00:32:26.800Z,26.60
2017-12-01T00:34:54.314Z,24.17
2017-12-01T00:37:22.079Z,26.15
2017-12-01T00:39:49.666Z,25.35
2017-12-01T00:42:17.439Z,26.48
2017-12-01T00:44:44.962Z,25.88
2017-12-01T00:47:12.482Z,24.75
2017-12-01T00:49:40.158Z,23.75
2017-12-01T00:52:07.670Z,21.73
2017-12-01T00:54:35.228Z,23.77
2017-12-01T00:57:02.694Z,23.15
2017-12-01T00:59:30.345Z,20.92
2017-12-01T01:01:57.858Z,22.23
2017-12-01T01:04:35.926Z,22.42
2017-12-01T01:07:03.536Z,21.15
2017-12-01T01:09:32.095Z,21.05
2017-12-01T01:12:00.090Z,22.25
2017-12-01T01:14:33.679Z,24.00
2017-12-01T01:17:01.406Z,23.45
2017-12-01T01:19:28.990Z,26.60
2017-12-01T01:21:56.901Z,23.77
2017-12-01T01:24:24.897Z,23.23
2017-12-01T01:26:52.698Z,22.65
2017-12-01T01:29:20.306Z,21.45
2017-12-01T01:31:48.077Z,20.17
2017-12-01T01:34:15.616Z,19.80
2017-12-01T01:36:43.030Z,19.20
2017-12-01T01:39:10.599Z,21.85
2017-12-01T01:41:38.220Z,19.73
2017-12-01T01:44:05.763Z,17.92
2017-12-01T01:46:33.537Z,19.95
2017-12-01T01:49:06.370Z,19.08
2017-12-01T01:51:33.938Z,19.52
2017-12-01T01:54:02.460Z,19.30
2017-12-01T01:56:29.983Z,18.60
2017-12-01T01:58:57.863Z,16.40
2017-12-01T02:01:25.446Z,17.75
2017-12-01T02:03:57.702Z,17.30
2017-12-01T02:06:25.294Z,18.77
2017-12-01T02:08:52.942Z,18.20
2017-12-01T02:11:20.637Z,16.85
2017-12-01T02:13:48.238Z,18.85
2017-12-01T02:16:15.787Z,16.25
2017-12-01T02:18:43.354Z,17.20
2017-12-01T02:21:11.043Z,17.95
2017-12-01T02:23:44.342Z,18.12
2017-12-01T02:26:17.991Z,22.35
2017-12-01T02:28:45.711Z,20.35
2017-12-01T02:31:13.322Z,23.20
2017-12-01T02:33:41.904Z,18.65
2017-12-01T02:36:09.494Z,19.62
2017-12-01T02:38:37.176Z,21.00
2017-12-01T02:41:04.845Z,22.67
2017-12-01T02:43:32.369Z,22.25
2017-12-01T02:46:00.005Z,20.92
2017-12-01T02:48:27.815Z,18.85
2017-12-01T02:50:55.343Z,19.55
2017-12-01T02:53:22.859Z,19.35
2017-12-01T02:55:50.439Z,21.45
2017-12-01T02:58:17.952Z,22.42
2017-12-01T03:00:45.561Z,22.17
2017-12-01T03:03:14.958Z,21.80
2017-12-01T03:05:42.477Z,22.83
2017-12-01T03:08:09.991Z,25.20
2017-12-01T03:10:37.932Z,21.55
2017-12-01T03:13:05.438Z,24.58
2017-12-01T03:15:32.982Z,25.88
2017-12-01T03:18:00.570Z,25.10
2017-12-01T03:20:28.752Z,24.17
2017-12-01T03:22:56.262Z,21.30
2017-12-01T03:25:23.796Z,20.30
2017-12-01T03:27:51.471Z,19.35
2017-12-01T03:30:19.027Z,18.10
2017-12-01T03:32:46.539Z,20.77
2017-12-01T03:35:14.815Z,20.00
2017-12-01T03:37:43.147Z,23.20
2017-12-01T03:40:10.660Z,21.95
2017-12-01T03:42:38.183Z,22.52
2017-12-01T03:45:06.758Z,20.00
2017-12-01T03:47:34.266Z,20.35
2017-12-01T03:50:01.771Z,20.08
2017-12-01T03:52:29.338Z,17.75
2017-12-01T03:54:58.738Z,16.35
2017-12-01T03:57:27.014Z,15.60
2017-12-01T03:59:54.751Z,18.27
2017-12-01T04:02:22.266Z,17.20
2017-12-01T04:04:49.781Z,18.80
2017-12-01T04:07:17.315Z,15.10
2017-12-01T04:09:44.823Z,13.68
2017-12-01T04:12:12.791Z,14.77
2017-12-01T04:14:40.739Z,16.60
2017-12-01T04:17:08.258Z,14.87
2017-12-01T04:19:35.955Z,13.90
2017-12-01T04:22:03.462Z,14.73
2017-12-01T04:24:30.982Z,14.52
2017-12-01T04:26:58.522Z,13.05
2017-12-01T04:29:26.325Z,16.70
2017-12-01T04:31:54.286Z,11.98
2017-12-01T04:34:21.870Z,15.00
2017-12-01T04:36:49.384Z,15.38
2017-12-01T04:39:16.990Z,16.10
2017-12-01T04:41:44.553Z,14.45
2017-12-01T04:44:13.147Z,14.75
2017-12-01T04:46:40.694Z,14.50
2017-12-01T04:49:08.885Z,13.80
2017-12-01T04:51:36.390Z,12.40
2017-12-01T04:54:03.903Z,13.18
2017-12-01T04:56:31.454Z,13.60
2017-12-01T04:58:58.967Z,14.05
2017-12-01T05:01:26.478Z,14.82
2017-12-01T05:03:54.463Z,15.55
2017-12-01T05:06:21.976Z,14.60
2017-12-01T05:08:49.487Z,14.52
2017-12-01T05:11:17.524Z,13.35
2017-12-01T05:13:45.051Z,14.13
2017-12-01T05:16:12.566Z,13.48
2017-12-01T05:18:40.139Z,13.38
2017-12-01T05:21:08.279Z,15.80
2017-12-01T05:23:35.792Z,14.82
2017-12-01T05:26:03.914Z,14.85
2017-12-01T05:28:31.423Z,16.30
2017-12-01T05:30:59.039Z,14.23
2017-12-01T05:33:26.574Z,15.80
2017-12-01T05:35:54.087Z,14.13
2017-12-01T05:38:21.594Z,16.37
2017-12-01T05:40:49.142Z,15.27
2017-12-01T05:43:16.656Z,16.50
2017-12-01T05:45:44.166Z,17.10
2017-12-01T05:48:13.079Z,15.73
2017-12-01T05:50:40.590Z,17.05
2017-12-01T05:53:08.111Z,17.30
2017-12-01T05:55:35.952Z,17.37
2017-12-01T05:58:03.466Z,16.92
2017-12-01T06:00:30.982Z,19.67
2017-12-01T06:02:58.738Z,18.33
2017-12-01T06:05:26.244Z,19.23
2017-12-01T06:07:54.472Z,36.83
2017-12-01T06:10:22.071Z,18.60
2017-12-01T06:12:49.579Z,18.90
2017-12-01T06:15:17.490Z,17.73
2017-12-01T06:17:45.049Z,17.05
2017-12-01T06:20:12.562Z,20.37
2017-12-01T06:22:40.815Z,18.48
2017-12-01T06:25:08.626Z,18.80
2017-12-01T06:27:36.143Z,17.05
2017-12-01T06:30:03.659Z,16.42
2017-12-01T06:32:31.223Z,17.08
2017-12-01T06:34:58.834Z,14.27
2017-12-01T06:37:27.114Z,16.70
2017-12-01T06:39:54.890Z,15.07
2017-12-01T06:42:23.563Z,16.73
2017-12-01T06:44:51.587Z,14.75
2017-12-01T06:47:19.315Z,18.20
2017-12-01T06:49:46.831Z,16.50
2017-12-01T06:52:14.360Z,61.03
2017-12-01T06:54:41.905Z,16.90
2017-12-01T06:57:09.742Z,14.13
2017-12-01T06:59:37.267Z,15.52
2017-12-01T07:02:04.910Z,15.32
2017-12-01T07:04:32.423Z,16.05
2017-12-01T07:06:59.935Z,15.70
2017-12-01T07:09:27.530Z,18.13
2017-12-01T07:11:56.503Z,15.73
2017-12-01T07:14:24.030Z,16.43
2017-12-01T07:16:51.585Z,18.10
2017-12-01T07:19:19.868Z,15.80
2017-12-01T07:21:47.671Z,15.73
2017-12-01T07:24:15.251Z,15.37
2017-12-01T07:26:54.766Z,16.35
2017-12-01T07:29:22.333Z,17.83
2017-12-01T07:31:49.850Z,14.10
2017-12-01T07:34:17.358Z,10.93
2017-12-01T07:36:44.903Z,10.38
2017-12-01T07:39:12.410Z,8.68
2017-12-01T07:41:39.919Z,9.52
2017-12-01T07:57:31.227Z,9.02
2017-12-01T07:59:58.739Z,11.77
2017-12-01T08:02:26.243Z,8.73
2017-12-01T08:04:53.974Z,11.80
2017-12-01T08:07:21.486Z,12.60
2017-12-01T08:09:49.122Z,10.60
2017-12-01T08:12:16.684Z,9.20
2017-12-01T08:14:44.199Z,10.30
2017-12-01T08:17:24.234Z,7.82
2017-12-01T08:19:51.743Z,8.65
2017-12-01T08:22:30.996Z,10.20
2017-12-01T08:25:10.202Z,9.43
2017-12-01T08:27:37.816Z,9.75
2017-12-01T08:30:05.358Z,8.88
2017-12-01T08:32:32.870Z,8.48
2017-12-01T08:35:00.435Z,10.45
2017-12-01T08:37:27.948Z,11.88
2017-12-01T08:39:55.454Z,8.20
2017-12-01T08:42:23.110Z,9.57
2017-12-01T08:44:50.755Z,9.10
2017-12-01T08:47:18.268Z,10.40
2017-12-01T08:49:45.826Z,10.73
2017-12-01T08:52:13.336Z,13.67
2017-12-01T08:54:40.838Z,9.32
2017-12-01T08:57:08.390Z,7.32
2017-12-01T08:59:35.654Z,7.50
2017-12-01T09:02:03.623Z,7.22
2017-12-01T09:04:31.531Z,5.55
2017-12-01T09:06:59.066Z,6.97
2017-12-01T09:09:26.571Z,6.80
2017-12-01T09:11:54.107Z,6.23
2017-12-01T09:14:21.615Z,6.40
2017-12-01T09:16:49.114Z,6.07
2017-12-01T09:19:16.672Z,6.93
2017-12-01T09:21:44.868Z,6.82
2017-12-01T09:24:12.375Z,7.22
2017-12-01T09:26:39.938Z,6.40
2017-12-01T09:29:08.211Z,5.93
2017-12-01T09:31:36.486Z,7.40
2017-12-01T09:34:04.134Z,6.55
2017-12-01T09:36:31.655Z,8.05
2017-12-01T09:38:59.219Z,6.95
2017-12-01T09:41:27.497Z,7.65
2017-12-01T09:43:55.032Z,7.50
2017-12-01T09:46:22.549Z,7.60
2017-12-01T09:48:50.107Z,7.15
2017-12-01T09:51:17.629Z,8.10
2017-12-01T09:53:45.136Z,7.97
2017-12-01T09:56:12.703Z,6.95
2017-12-01T09:58:40.203Z,9.67
2017-12-01T10:01:07.756Z,13.00
2017-12-01T10:03:35.312Z,7.07
2017-12-01T10:06:02.823Z,7.67
2017-12-01T10:08:32.783Z,7.80
2017-12-01T10:11:00.960Z,9.20
2017-12-01T10:13:29.543Z,8.13
2017-12-01T10:15:57.098Z,8.60
2017-12-01T10:18:24.599Z,8.37
2017-12-01T10:20:52.106Z,8.10
2017-12-01T10:23:19.922Z,9.10
2017-12-01T10:25:47.430Z,7.77
2017-12-01T10:28:14.951Z,9.17
2017-12-01T10:30:42.532Z,9.23
2017-12-01T10:33:10.050Z,5.50
2017-12-01T10:35:37.546Z,7.60
2017-12-01T10:38:05.086Z,6.87
2017-12-01T10:40:32.594Z,6.80
2017-12-01T10:43:00.108Z,7.77
2017-12-01T10:45:27.676Z,7.23
2017-12-01T10:47:55.177Z,6.97
2017-12-01T10:50:22.737Z,8.00
2017-12-01T10:52:50.307Z,6.53
2017-12-01T10:55:17.818Z,5.80
2017-12-01T10:57:46.086Z,6.90
2017-12-01T11:00:13.654Z,6.80
2017-12-01T11:02:41.161Z,8.03
2017-12-01T11:05:08.671Z,7.47
2017-12-01T11:07:36.767Z,7.40
2017-12-01T11:10:05.040Z,5.83
2017-12-01T11:12:33.319Z,6.20
2017-12-01T11:15:01.642Z,7.50
2017-12-01T11:17:29.152Z,7.10
2017-12-01T11:19:56.674Z,7.47
2017-12-01T11:22:24.882Z,8.13
2017-12-01T11:24:52.393Z,8.10
2017-12-01T11:27:19.898Z,6.20
2017-12-01T11:29:48.226Z,9.67
2017-12-01T11:32:15.746Z,6.90
2017-12-01T11:34:43.622Z,8.50
2017-12-01T11:37:11.147Z,8.67
2017-12-01T11:39:38.722Z,10.80
2017-12-01T11:42:06.230Z,10.00
2017-12-01T11:44:34.503Z,10.77
2017-12-01T11:47:02.082Z,9.37
2017-12-01T11:49:29.969Z,10.00
2017-12-01T11:51:57.466Z,9.93
2017-12-01T11:54:25.028Z,8.27
2017-12-01T11:56:52.540Z,7.77
2017-12-01T11:59:20.059Z,7.10
2017-12-01T12:01:47.614Z,8.20
2017-12-01T12:04:15.023Z,8.20
2017-12-01T12:06:42.522Z,6.20
2017-12-01T12:09:10.199Z,7.87
2017-12-01T12:11:37.630Z,7.20
2017-12-01T12:14:05.188Z,4.73
2017-12-01T12:16:32.747Z,6.20
2017-12-01T12:19:00.260Z,6.50
2017-12-01T12:21:27.822Z,7.47
2017-12-01T12:23:55.322Z,7.77
2017-12-01T12:26:23.587Z,6.03
2017-12-01T12:28:52.718Z,7.00
2017-12-01T12:31:20.219Z,7.83
2017-12-01T12:33:47.720Z,8.60
2017-12-01T12:36:15.275Z,8.10
2017-12-01T12:38:42.783Z,7.37
2017-12-01T12:41:10.349Z,7.80
2017-12-01T12:43:37.900Z,7.00
2017-12-01T12:46:05.406Z,7.85
2017-12-01T12:48:32.914Z,8.93
2017-12-01T12:51:00.570Z,7.90
2017-12-01T12:53:28.134Z,8.50
2017-12-01T12:55:55.652Z,8.70
2017-12-01T12:58:23.223Z,10.30
2017-12-01T13:00:50.772Z,9.30
2017-12-01T13:03:18.290Z,9.20
2017-12-01T13:05:45.851Z,9.20
2017-12-01T13:08:13.357Z,10.10
2017-12-01T13:10:40.919Z,8.60
2017-12-01T13:13:08.447Z,10.55
2017-12-01T13:15:35.959Z,9.15
2017-12-01T13:18:03.472Z,8.80
2017-12-01T13:20:31.054Z,9.40
2017-12-01T13:22:58.574Z,10.17
2017-12-01T13:25:26.846Z,10.27
2017-12-01T13:27:55.159Z,9.20
2017-12-01T13:30:22.664Z,8.63
2017-12-01T13:32:50.740Z,7.35
2017-12-01T13:35:18.417Z,6.75
2017-12-01T13:37:45.930Z,6.70
2017-12-01T13:40:13.502Z,8.65
2017-12-01T13:42:41.159Z,7.03
2017-12-01T13:45:08.667Z,7.13
2017-12-01T13:47:36.176Z,8.20
2017-12-01T13:50:03.943Z,7.20
2017-12-01T13:52:31.455Z,6.10
2017-12-01T13:54:58.967Z,5.67
2017-12-01T13:57:26.638Z,6.30
2017-12-01T13:59:54.911Z,6.37
2017-12-01T14:02:22.415Z,6.35
2017-12-01T14:04:49.974Z,7.45
2017-12-01T14:07:17.526Z,6.03
2017-12-01T14:09:45.043Z,6.80
2017-12-01T14:12:12.882Z,6.37
2017-12-01T14:14:40.391Z,7.00
2017-12-01T14:17:07.916Z,9.07
2017-12-01T14:19:35.491Z,9.20
2017-12-01T14:22:02.991Z,8.45
2017-12-01T14:24:30.507Z,9.32
2017-12-01T14:26:58.075Z,7.72
2017-12-01T14:29:25.587Z,8.13
2017-12-01T14:31:53.212Z,8.40
2017-12-01T14:34:20.880Z,9.67
2017-12-01T14:36:48.397Z,8.47
2017-12-01T14:39:15.909Z,9.52
2017-12-01T14:41:43.889Z,9.07
2017-12-01T14:44:11.426Z,8.07
2017-12-01T14:46:38.927Z,9.02
2017-12-01T14:49:06.705Z,9.63
2017-12-01T14:51:34.084Z,9.30
2017-12-01T14:54:02.402Z,9.80
2017-12-01T14:56:30.268Z,8.77
2017-12-01T14:58:58.390Z,10.07
2017-12-01T15:01:26.003Z,10.38
2017-12-01T15:03:53.732Z,10.13
2017-12-01T15:06:21.071Z,9.80
2017-12-01T15:08:48.619Z,7.87
2017-12-01T15:11:16.335Z,10.80
2017-12-01T15:13:43.847Z,9.52
2017-12-01T15:16:11.375Z,10.15
2017-12-01T15:18:38.940Z,9.45
2017-12-01T15:21:06.454Z,39.30
2017-12-01T15:23:34.014Z,20.60
2017-12-01T15:26:02.708Z,9.43
2017-12-01T15:28:30.236Z,9.55
2017-12-01T15:30:57.758Z,9.32
2017-12-01T15:33:25.579Z,9.60
2017-12-01T15:35:53.094Z,11.07
2017-12-01T15:38:20.611Z,10.00
2017-12-01T15:40:48.178Z,8.25
2017-12-01T15:43:15.718Z,10.02
2017-12-01T15:45:44.015Z,13.05
2017-12-01T15:48:12.122Z,11.18
2017-12-01T15:50:39.660Z,12.02
2017-12-01T15:53:07.191Z,14.30
2017-12-01T15:55:34.759Z,14.75
2017-12-01T15:58:02.271Z,15.75
2017-12-01T16:00:29.813Z,16.05
2017-12-01T16:03:01.162Z,15.10
2017-12-01T16:05:28.867Z,13.95
2017-12-01T16:07:56.415Z,15.80
2017-12-01T16:10:24.106Z,17.08
2017-12-01T16:12:51.624Z,18.17
2017-12-01T16:15:19.288Z,18.37
2017-12-01T16:17:47.147Z,17.33
2017-12-01T16:20:14.591Z,18.90
2017-12-01T16:22:42.922Z,21.77
2017-12-01T16:25:11.135Z,20.55
2017-12-01T16:27:39.427Z,19.77
2017-12-01T16:30:07.178Z,20.33
2017-12-01T16:32:42.333Z,19.30
2017-12-01T16:35:02.711Z,21.42
2017-12-01T16:37:30.867Z,20.98
2017-12-01T16:39:58.582Z,18.90
2017-12-01T16:42:26.094Z,20.90
2017-12-01T16:44:53.671Z,21.27
2017-12-01T16:47:21.258Z,20.88
2017-12-01T16:49:48.766Z,24.45
2017-12-01T16:52:16.277Z,25.58
2017-12-01T16:54:43.846Z,23.35
2017-12-01T16:57:11.509Z,27.40
2017-12-01T16:59:39.140Z,23.33
2017-12-01T17:02:06.759Z,23.17
2017-12-01T17:04:34.415Z,24.70
2017-12-01T17:07:01.931Z,24.37
2017-12-01T17:09:29.513Z,27.42
2017-12-01T17:11:57.073Z,23.27
2017-12-01T17:14:26.546Z,21.75
2017-12-01T17:16:54.474Z,22.67
2017-12-01T17:19:22.747Z,18.92
2017-12-01T17:21:50.392Z,19.40
2017-12-01T17:24:19.154Z,20.48
2017-12-01T17:26:46.987Z,21.87
2017-12-01T17:29:14.515Z,25.15
2017-12-01T17:31:42.028Z,26.45
2017-12-01T17:34:09.611Z,26.00
2017-12-01T17:36:37.120Z,31.40
2017-12-01T17:39:04.896Z,34.25
2017-12-01T17:41:32.415Z,28.58
2017-12-01T17:44:00.012Z,25.88
2017-12-01T17:46:28.335Z,26.58
2017-12-01T17:48:57.729Z,23.73
2017-12-01T17:51:25.960Z,24.67
2017-12-01T17:53:53.799Z,24.27
2017-12-01T17:56:21.362Z,24.65
2017-12-01T17:58:49.960Z,23.17
2017-12-01T18:01:17.802Z,22.13
2017-12-01T18:03:45.386Z,24.70
2017-12-01T18:06:12.928Z,21.77
2017-12-01T18:08:40.698Z,22.55
2017-12-01T18:11:08.900Z,22.17
2017-12-01T18:13:36.412Z,23.10
2017-12-01T18:16:04.303Z,25.17
2017-12-01T18:18:31.874Z,23.30
2017-12-01T18:20:59.382Z,26.00
2017-12-01T18:23:26.890Z,25.65
2017-12-01T18:25:54.434Z,27.37
2017-12-01T18:28:21.991Z,25.35
2017-12-01T18:30:49.736Z,27.98
2017-12-01T18:33:17.314Z,36.92
2017-12-01T18:35:45.600Z,25.10
2017-12-01T18:38:13.748Z,28.80
2017-12-01T18:40:41.308Z,28.95
2017-12-01T18:43:09.586Z,26.65
2017-12-01T18:45:37.875Z,23.05
2017-12-01T18:48:06.203Z,25.85
2017-12-01T18:50:35.157Z,25.62
2017-12-01T18:53:02.727Z,27.17
2017-12-01T18:55:30.619Z,25.23
2017-12-01T18:57:58.137Z,22.27
2017-12-01T19:00:25.722Z,22.52
2017-12-01T19:02:53.412Z,21.70
2017-12-01T19:05:21.024Z,21.17
2017-12-01T19:07:48.559Z,25.23
2017-12-01T19:10:16.123Z,25.75
2017-12-01T19:12:43.637Z,22.13
2017-12-01T19:15:11.206Z,20.23
2017-12-01T19:17:38.755Z,22.30
2017-12-01T19:20:06.454Z,22.35
2017-12-01T19:22:34.066Z,24.80
2017-12-01T19:25:01.627Z,22.90
2017-12-01T19:27:29.179Z,29.63
2017-12-01T19:29:56.771Z,26.60
2017-12-01T19:32:24.315Z,24.58
2017-12-01T19:34:51.822Z,28.67
2017-12-01T19:37:19.333Z,26.25
2017-12-01T19:39:46.949Z,25.00
2017-12-01T19:42:14.465Z,29.85
2017-12-01T19:44:42.016Z,22.83
2017-12-01T19:47:09.690Z,24.35
2017-12-01T19:49:37.287Z,26.35
2017-12-01T19:52:05.586Z,25.73
2017-12-01T19:54:33.123Z,24.10
2017-12-01T19:57:00.699Z,23.73
2017-12-01T19:59:28.215Z,22.60
2017-12-01T20:01:55.727Z,22.10
2017-12-01T20:04:23.299Z,23.15
2017-12-01T20:06:51.458Z,19.70
2017-12-01T20:09:19.691Z,24.33
2017-12-01T20:11:47.211Z,24.40
2017-12-01T20:14:14.783Z,17.92
2017-12-01T20:16:42.291Z,22.58
2017-12-01T20:19:09.846Z,22.02
2017-12-01T20:21:37.498Z,46.67
2017-12-01T20:24:05.576Z,22.98
2017-12-01T20:26:33.691Z,34.33
2017-12-01T20:29:01.363Z,22.08
2017-12-01T20:31:29.286Z,22.92
2017-12-01T20:33:56.987Z,20.85
2017-12-01T20:36:25.134Z,22.00
2017-12-01T20:38:52.711Z,21.02
2017-12-01T20:41:20.831Z,19.73
2017-12-01T20:43:48.889Z,18.05
2017-12-01T20:46:16.652Z,20.25
2017-12-01T20:48:45.582Z,23.83
2017-12-01T20:51:13.554Z,22.62
2017-12-01T20:53:41.835Z,21.02
2017-12-01T20:56:11.250Z,19.52
2017-12-01T20:58:40.480Z,20.95
2017-12-01T21:01:08.818Z,21.58
2017-12-01T21:03:36.974Z,22.37
2017-12-01T21:06:06.278Z,23.35
2017-12-01T21:08:34.064Z,20.98
2017-12-01T21:11:02.981Z,21.90
2017-12-01T21:13:30.699Z,21.67
2017-12-01T21:15:58.516Z,20.92
2017-12-01T21:18:26.247Z,21.52
2017-12-01T21:20:55.164Z,19.87
2017-12-01T21:23:23.571Z,21.85
2017-12-01T21:25:51.778Z,22.92
2017-12-01T21:28:19.330Z,22.17
2017-12-01T21:30:47.614Z,20.73
2017-12-01T21:33:16.346Z,20.98
2017-12-01T21:35:45.060Z,22.02
2017-12-01T21:38:12.735Z,18.45
2017-12-01T21:40:40.267Z,23.15
2017-12-01T21:43:08.667Z,22.80
2017-12-01T21:45:37.995Z,21.77
2017-12-01T21:48:05.526Z,21.37
2017-12-01T21:50:33.039Z,23.23
2017-12-01T21:53:01.302Z,25.40
2017-12-01T21:55:30.566Z,23.23
2017-12-01T21:58:00.472Z,23.30
2017-12-01T22:00:28.833Z,21.73
2017-12-01T22:02:56.980Z,23.73
2017-12-01T22:05:24.495Z,25.85
2017-12-01T22:07:52.591Z,22.40
2017-12-01T22:10:20.694Z,22.90
2017-12-01T22:12:48.803Z,26.48
2017-12-01T22:15:16.374Z,23.38
2017-12-01T22:17:45.351Z,23.08
2017-12-01T22:20:12.618Z,23.48
2017-12-01T22:22:41.304Z,23.05
2017-12-01T22:25:08.871Z,26.30
2017-12-01T22:27:37.198Z,25.98
2017-12-01T22:30:05.777Z,24.77
2017-12-01T22:32:34.063Z,23.58
2017-12-01T22:35:02.038Z,21.10
2017-12-01T22:37:30.605Z,24.73
2017-12-01T22:39:59.501Z,24.55
2017-12-01T22:42:27.982Z,25.33
2017-12-01T22:44:56.802Z,25.85
2017-12-01T22:47:25.137Z,24.33
2017-12-01T22:49:53.673Z,26.15
2017-12-01T22:52:21.892Z,23.02
2017-12-01T22:54:50.207Z,24.60
2017-12-01T22:57:18.103Z,24.20
2017-12-01T22:59:45.896Z,27.40
2017-12-01T23:02:13.411Z,27.23
2017-12-01T23:04:41.669Z,27.25
2017-12-01T23:07:10.745Z,22.25
2017-12-01T23:09:39.022Z,24.90
2017-12-01T23:12:06.619Z,23.80
2017-12-01T23:14:34.785Z,23.17
2017-12-01T23:17:02.338Z,24.00
2017-12-01T23:19:30.533Z,24.92
2017-12-01T23:21:58.062Z,23.12
2017-12-01T23:24:26.005Z,25.73
2017-12-01T23:26:54.369Z,25.08
2017-12-01T23:29:22.782Z,26.95
2017-12-01T23:31:51.006Z,25.67
2017-12-01T23:34:18.595Z,25.77
2017-12-01T23:36:46.786Z,23.08
2017-12-01T23:39:14.599Z,23.38
2017-12-01T23:41:42.451Z,23.45
2017-12-01T23:44:10.003Z,22.77
2017-12-01T23:46:37.519Z,25.60
2017-12-01T23:49:05.060Z,23.60
2017-12-01T23:51:32.700Z,23.65
2017-12-01T23:54:00.211Z,24.55
2017-12-01T23:56:27.879Z,26.25
2017-12-01T23:58:55.396Z,26.65
